プノンペン国際空港の過去48時間の天気

プノンペン国際空港 (Phnom-Penh / Pochentong)

現在時刻: 10/1 23:03 +07 (10/1 16:03 UTC) 以下の時間は現地時間です。

過去48時間のMETAR気象情報
時間 風向 風速(m/s) 視程 気温(℃) 湿度(%) 気圧(hPa) 天気現象
1 22:30 不定 1 9000m 27 94 1006
1 22:00 不定 1 9000m 27 94 1006
1 21:30 南南西 2 9000m 27 94 1005
1 21:00 不定 2 9000m 27 94 1005
1 20:30 南南東 2 9000m 27 94 1005
1 20:00 南東 2 9000m 28 89 1005
1 19:30 南東 3 9000m 28 84 1005
1 19:00 不定 1 9000m 28 84 1004
1 18:30 不定 2 9000m 28 84 1004
1 18:00 2 9000m 28 89 1004
1 17:30 3 9000m 28 89 1003
1 17:00 南南東 2 - 28 89 1003 弱い雷雨
1 16:30 南東 2 - 29 79 1003 弱い雷雨
1 16:00 西 4 9000m 30 70 1002 周辺で雷雨
1 15:30 西 5 9000m 31 66 1002 周辺で雨
1 15:00 3 9000m 33 59 1002 周辺で雨
1 14:30 3 10km以上 34 56 1003
1 14:00 3 10km以上 33 56 1003
1 13:30 西北西 3 10km以上 33 56 1004
1 13:00 不定 2 10km以上 33 59 1004
1 12:30 不定 2 10km以上 33 59 1005
1 12:00 3 10km以上 32 63 1006
1 11:30 4 10km以上 32 59 1006
1 11:00 北北西 3 10km以上 32 59 1007
1 10:30 北西 2 10km以上 32 63 1007
1 10:00 不定 2 10km以上 31 66 1007
1 09:30 不定 2 10km以上 31 66 1007
1 09:00 不定 1 10km以上 30 75 1007
1 08:30 不定 1 10km以上 29 79 1007
1 08:00 不定 1 10km以上 28 84 1007
1 07:30 不定 2 10km以上 28 79 1006
1 07:00 不定 2 10km以上 28 84 1006
1 06:30 静穏 0 9000m 27 89 1005
1 06:00 南南西 1 9000m 27 89 1005
1 05:30 南南西 1 9000m 26 94 1005
1 05:00 静穏 0 9000m 26 94 1004
1 04:30 1 9000m 26 94 1004
1 04:00 不定 1 9000m 27 89 1004
1 03:30 南南西 1 9000m 27 94 1004
1 03:00 1 9000m 27 94 1005
1 02:30 1 9000m 27 94 1005
1 02:00 静穏 0 9000m 27 94 1005
1 01:30 静穏 0 9000m 27 89 1006
1 01:00 静穏 0 9000m 27 89 1006
1 00:30 静穏 0 9000m 27 89 1006
1 00:00 1 9000m 27 89 1006
30 23:30 不定 1 9000m 27 84 1007
30 23:00 静穏 0 9000m 27 89 1007
30 22:30 静穏 0 9000m 27 89 1007
30 22:00 不定 1 9000m 27 89 1007
30 21:00 不定 1 - 27 84 1007 弱い雨
30 20:30 不定 1 9000m 27 89 1006
30 20:00 不定 1 9000m 27 89 1006
30 19:30 北北西 2 9000m 27 84 1005
30 19:00 北北西 2 9000m 27 84 1005
30 18:30 北北西 2 9000m 28 84 1004
30 18:00 西北西 3 9000m 28 84 1004
30 17:30 西 3 9000m 27 84 1004
30 17:00 西 5 9000m 27 89 1004
30 16:30 西 4 9000m 28 79 1004
30 16:00 西南西 8 9000m 28 79 1003 周辺で雨
30 15:30 西北西 2 10km以上 32 56 1003
30 15:00 西 2 10km以上 33 56 1003
30 14:30 不定 2 10km以上 33 56 1003
30 14:00 不定 2 10km以上 33 56 1004
30 13:30 西 3 10km以上 33 53 1005
30 13:00 西南西 4 10km以上 33 53 1005
30 12:30 不定 2 10km以上 33 56 1006
30 12:00 西南西 3 10km以上 32 59 1007
30 11:30 南南西 3 10km以上 32 63 1007
30 11:00 不定 2 10km以上 32 59 1008
30 10:30 不定 2 10km以上 31 62 1008
30 10:00 西 2 10km以上 31 62 1008
30 09:30 西 2 10km以上 29 70 1008
30 09:00 不定 2 10km以上 29 70 1008
30 08:30 不定 2 10km以上 29 70 1008
30 08:00 不定 2 10km以上 28 74 1008
30 07:30 不定 2 10km以上 27 79 1007
30 07:00 南南西 2 10km以上 27 84 1007
30 06:00 不定 1 9000m 27 84 1006
30 05:30 不定 1 9000m 27 84 1006
30 05:00 西南西 3 9000m 27 84 1006
30 04:30 南西 2 9000m 27 84 1006
30 04:00 南西 2 9000m 27 84 1005
30 03:00 西南西 2 9000m 27 84 1006
30 02:30 西南西 2 9000m 27 84 1006
VDPP 011530Z VRB02KT 9000 SCT017 SCT040 27/26 Q1006
VDPP 011500Z VRB02KT 9000 SCT017 SCT040 27/26 Q1006
VDPP 011430Z 21004KT 9000 SCT015 FEW017CB SCT040 27/26 Q1005 CB:E/SE
VDPP 011400Z VRB03KT 9000 SCT015 FEW017CB SCT040 27/26 Q1005 CB:E/SE
VDPP 011330Z 15003KT 9000 SCT015 FEW017CB SCT040 27/26 Q1005 CB:E/SE
VDPP 011300Z 13004KT 090V160 9000 SCT015 FEW017CB SCT040 28/26 Q1005 CB:E/SE
VDPP 011230Z 13005KT 9000 SCT015 FEW017CB SCT040 28/25 Q1005 CB:E/SE
VDPP 011200Z VRB02KT 9000 SCT015 FEW017CB BKN040 28/25 Q1004 CB:E/SE
VDPP 011130Z VRB03KT 9000 SCT015 FEW017CB BKN040 28/25 Q1004 CB:E/SE
VDPP 011100Z 18004KT 150V220 9000 SCT015 FEW017CB BKN040 28/26 Q1004 CB:S/W/NW
VDPP 011030Z 18005KT 150V220 9000 SCT015 FEW017CB BKN040 28/26 Q1003 CB:S/W/NW
VDPP 011000Z 15004KT 110V170 8000-TSRA BKN015 FEW017CB BKN040 28/26 Q1003 CB:S/W/NW
VDPP 010930Z 13004KT 8000-TSRA BKN015 FEW017CB BKN040 29/25 Q1003 CB:S/W/NW
VDPP 010900Z 27008KT 240V310 9000 VCTSRA SCT015 FEW017CB SCT040 30/24 Q1002 CB:S/W/NW
VDPP 010830Z 27009KT 240V320 9000 VCRA SCT015 FEW017CB SCT040 31/24 Q1002 CB:S/W/NW
VDPP 010800Z VRB05KT 9000 VCRA SCT015 FEW017CB SCT040 33/24 Q1002 CB:S/W/NW
VDPP 010730Z 35005KT 250V030 9999 SCT015 FEW017 SCT040 34/24 Q1003 CB:W/NW
VDPP 010700Z 01005KT 310V080 9999 SCT015 FEW017 SCT040 33/23 Q1003 CB:W/NW
VDPP 010630Z 29005KT 240V040 9999 SCT015 FEW017 SCT040 33/23 Q1004 CB:W/NW
VDPP 010600Z VRB03KT 9999 SCT015 FEW017 SCT040 33/24 Q1004 CB:NW/E
VDPP 010530Z VRB03KT 9999 SCT015 FEW017 SCT040 33/24 Q1005 CB:NW/E
VDPP 010500Z 36005KT 300V060 9999 SCT015 SCT040 32/24 Q1006
VDPP 010430Z 35007KT 300V030 9999 SCT015 SCT040 32/23 Q1006
VDPP 010400Z 34005KT 280V050 9999 SCT015 SCT040 32/23 Q1007
VDPP 010330Z 32003KT 9999 SCT015 SCT040 32/24 Q1007
VDPP 010300Z VRB03KT 9999 SCT015 SCT040 31/24 Q1007
VDPP 010230Z VRB03KT 9999 SCT015 SCT040 31/24 Q1007
VDPP 010200Z VRB01KT 9999 SCT015 SCT040 30/25 Q1007
VDPP 010130Z VRB01KT 9999 SCT015 SCT040 29/25 Q1007
VDPP 010100Z VRB02KT 9999 SCT015 SCT040 28/25 Q1007
VDPP 010030Z VRB03KT 9999 SCT015 SCT040 28/24 Q1006
VDPP 010000Z VRB03KT 9999 SCT015 SCT040 28/25 Q1006
VDPP 302330Z 00000KT 9000 SCT015 SCT040 27/25 Q1005
VDPP 302300Z 20001KT 9000 SCT015 SCT040 27/25 Q1005
VDPP 302230Z 20002KT 9000 SCT015 SCT040 26/25 Q1005
VDPP 302200Z 00000KT 9000 SCT015 SCT040 26/25 Q1004
VDPP 302130Z 18001KT 9000 SCT015 SCT040 26/25 Q1004
VDPP 302100Z VRB02KT 9000 SCT015 SCT040 27/25 Q1004
VDPP 302030Z 20001KT 9000 SCT015 SCT040 27/26 Q1004
VDPP 302000Z 19002KT 9000 SCT015 SCT040 27/26 Q1005
VDPP 301930Z 18002KT 9000 SCT015 SCT040 27/26 Q1005
VDPP 301900Z 00000KT 9000 SCT015 SCT040 27/26 Q1005
VDPP 301830Z 00000KT 9000 SCT015 SCT040 27/25 Q1006
VDPP 301800Z 00000KT 9000 SCT015 SCT040 27/25 Q1006
VDPP 301730Z 00000KT 9000 SCT015 SCT040 27/25 Q1006
VDPP 301700Z 18001KT 9000 SCT015 SCT040 27/25 Q1006
VDPP 301630Z VRB02KT 9000 SCT015 SCT040 27/24 Q1007
VDPP 301600Z 00000KT 9000 SCT015 SCT040 27/25 Q1007
VDPP 301530Z 00000KT 9000 SCT015 SCT040 27/25 Q1007
VDPP 301500Z VRB02KT 9000 SCT015 SCT040 27/25 Q1007
VDPP 301400Z VRB01KT 9000-RA SCT015 FEW017CB SCT040 27/24 Q1007 CB N/E
VDPP 301330Z VRB01KT 9000 SCT015 FEW017CB SCT040 27/25 Q1006 CB N/E
VDPP 301300Z VRB02KT 9000 SCT015 FEW017CB SCT040 27/25 Q1006 CB N/E
VDPP 301230Z 34004KT 320V030 9000 SCT013 FEW015CB SCT040 27/24 Q1005 CB N/E
VDPP 301200Z 33004KT 290V020 9000 SCT013 FEW015CB SCT040 27/24 Q1005 CB N/E
VDPP 301130Z 33004KT 290V010 9000 SCT013 FEW015CB SCT040 28/25 Q1004 CB N/E
VDPP 301100Z 30005KT 260V330 9000 SCT013 FEW015CB SCT040 28/25 Q1004 CB N/E
VDPP 301030Z 27005KT 240V310 9000 SCT013 FEW015CB SCT040 27/24 Q1004 CB N/E
VDPP 301000Z 26009KT 240V300 9000 SCT013 FEW015CB SCT040 27/25 Q1004 CB N/E
VDPP 300930Z 26008KT 230V290 9000 SCT013 FEW015CB SCT040 28/24 Q1004 CB N/E
VDPP 300900Z 24015KT 9000 VCRA SCT013 FEW015CB SCT040 28/24 Q1003 CB N/E/S
VDPP 300830Z 29004KT 210V330 9999 SCT015 FEW017CB SCT040 32/22 Q1003 CB N/E/S
VDPP 300800Z 28004KT 190V320 9999 SCT015 FEW017CB SCT040 33/23 Q1003 CB N/E/S
VDPP 300730Z VRB03KT 9999 SCT015 FEW017CB SCT040 33/23 Q1003 CB N/E/S
VDPP 300700Z VRB03KT 9999 SCT015 FEW017CB SCT040 33/23 Q1004 CB N/E/S
VDPP 300630Z 26005KT 210V330 9999 SCT015 FEW017CB 33/22 Q1005 CB N/S
VDPP 300600Z 24007KT 210V030 9999 SCT015 FEW017CB 33/22 Q1005 CB N/S
VDPP 300530Z VRB03KT 9999 SCT015 FEW017CB 33/23 Q1006 CB N/S
VDPP 300500Z 25005KT 210V280 9999 SCT017 32/23 Q1007
VDPP 300430Z 21005KT 180V360 9999 SCT015 SCT040 32/24 Q1007
VDPP 300400Z VRB03KT 9999 SCT015 SCT040 32/23 Q1008
VDPP 300330Z VRB03KT 9999 SCT015 SCT040 31/23 Q1008
VDPP 300300Z 27004KT 170V340 9999 SCT015 SCT040 31/23 Q1008
VDPP 300230Z 26004KT 220V310 9999 SCT015 SCT040 29/23 Q1008
VDPP 300200Z VRB03KT 9999 SCT015 SCT040 29/23 Q1008
VDPP 300130Z VRB03KT 9999 SCT015 SCT040 29/23 Q1008
VDPP 300100Z VRB03KT 9999 SCT015 SCT040 28/23 Q1008
VDPP 300030Z VRB03KT 9999 SCT015 SCT040 27/23 Q1007
VDPP 300000Z 21003KT 9999 SCT015 SCT040 27/24 Q1007
VDPP 292300Z VRB02KT 9000 SCT015 SCT040 27/24 Q1006
VDPP 292230Z VRB02KT 9000 SCT015 SCT040 27/24 Q1006
VDPP 292200Z 24005KT 9000 SCT015 SCT040 27/24 Q1006
VDPP 292130Z 23004KT 9000 SCT015 SCT040 27/24 Q1006
VDPP 292100Z 23004KT 9000 SCT015 SCT040 27/24 Q1005
VDPP 292000Z 24004KT 9000 SCT015 SCT040 27/24 Q1006
VDPP 291930Z 24004KT 9000 SCT015 SCT040 27/24 Q1006